Terminal Aerodrome Forecast
Issued by NWS

Home | Current Version | Previous Version | Text Only | Print | Product List | Glossary On
Versions: 1 2 3 4 5 6 7 8 9 10 11 12 13 14 15 16 17 18 19 20 21 22 23 24
000
FTUS43 KGLD 300700 AAA
TAFMCK
TAF AMD
KMCK 300751Z 3008/3106 10012KT 3SM RA BR SCT030 OVC060
     FM301000 09008KT P6SM -SHRA OVC040
      TEMPO 3012/3016 4SM -SHRA BR OVC020
     FM301800 09008KT P6SM SCT025 BKN110
     FM302100 10010KT P6SM VCTS SCT050CB BKN120
     FM310200 VRB05KT P6SM FEW120 BKN250=

USA.gov is the U.S. government's official web portal to all federal, state and local government web resources and services.